createdAt,value
2024-03-16T00:01:19.331Z,5.68
2024-03-16T00:03:47.970Z,8.80
2024-03-16T00:06:16.407Z,11.40
2024-03-16T00:08:44.833Z,11.52
2024-03-16T00:11:13.315Z,9.73
2024-03-16T00:13:41.952Z,8.35
2024-03-16T00:16:10.644Z,6.93
2024-03-16T00:18:39.232Z,7.03
2024-03-16T00:21:07.814Z,6.13
2024-03-16T00:23:36.550Z,6.43
2024-03-16T00:26:05.175Z,7.93
2024-03-16T00:28:34.334Z,9.88
2024-03-16T00:31:05.317Z,9.35
2024-03-16T00:33:35.445Z,8.25
2024-03-16T00:36:03.915Z,8.23
2024-03-16T00:38:32.347Z,9.35
2024-03-16T00:41:00.819Z,7.03
2024-03-16T00:43:29.435Z,7.32
2024-03-16T00:45:56.945Z,6.63
2024-03-16T00:48:25.425Z,7.55
2024-03-16T00:50:55.026Z,6.53
2024-03-16T00:53:23.491Z,7.10
2024-03-16T00:55:51.958Z,6.53
2024-03-16T00:58:21.040Z,6.70
2024-03-16T01:00:50.583Z,6.45
2024-03-16T01:03:20.062Z,6.10
2024-03-16T01:05:52.725Z,7.55
2024-03-16T01:08:21.153Z,6.70
2024-03-16T01:10:56.025Z,6.45
2024-03-16T01:13:24.965Z,6.07
2024-03-16T01:15:53.894Z,6.60
2024-03-16T01:18:22.425Z,8.32
2024-03-16T01:20:50.893Z,6.88
2024-03-16T01:23:20.807Z,5.15
2024-03-16T01:25:50.733Z,6.32
2024-03-16T01:28:19.439Z,5.85
2024-03-16T01:30:48.028Z,7.07
2024-03-16T01:33:16.514Z,5.22
2024-03-16T01:35:45.155Z,4.82
2024-03-16T01:38:13.696Z,5.35
2024-03-16T01:40:42.118Z,5.05
2024-03-16T01:43:13.223Z,6.35
2024-03-16T01:45:42.347Z,5.88
2024-03-16T01:48:11.886Z,5.50
2024-03-16T01:50:40.359Z,6.40
2024-03-16T01:53:10.641Z,4.93
2024-03-16T01:55:39.340Z,6.47
2024-03-16T01:58:08.613Z,6.13
2024-03-16T02:00:37.304Z,5.53
2024-03-16T02:03:05.930Z,6.30
2024-03-16T02:05:37.405Z,5.75
2024-03-16T02:08:06.355Z,5.78
2024-03-16T02:10:35.285Z,7.32
2024-03-16T02:13:04.200Z,5.82
2024-03-16T02:15:33.398Z,6.60
2024-03-16T02:18:01.984Z,5.63
2024-03-16T02:20:32.833Z,6.95
2024-03-16T02:23:01.463Z,5.85
2024-03-16T02:25:30.415Z,4.20
2024-03-16T02:27:58.957Z,5.18
2024-03-16T02:30:27.971Z,5.13
2024-03-16T02:32:56.935Z,6.30
2024-03-16T02:35:25.461Z,5.65
2024-03-16T02:37:54.008Z,4.45
2024-03-16T02:40:24.303Z,5.70
2024-03-16T02:42:52.779Z,5.55
2024-03-16T02:45:22.219Z,5.00
2024-03-16T02:47:50.867Z,5.80
2024-03-16T02:50:21.070Z,5.97
2024-03-16T02:52:49.581Z,4.25
2024-03-16T02:55:18.449Z,6.30
2024-03-16T02:57:46.979Z,5.82
2024-03-16T03:00:17.161Z,6.60
2024-03-16T03:02:45.659Z,5.45
2024-03-16T03:05:20.529Z,4.82
2024-03-16T03:07:49.421Z,6.00
2024-03-16T03:10:18.145Z,4.80
2024-03-16T03:12:47.550Z,4.70
2024-03-16T03:15:16.051Z,5.38
2024-03-16T03:17:44.531Z,5.20
2024-03-16T03:20:13.031Z,4.15
2024-03-16T03:22:41.716Z,5.80
2024-03-16T03:25:11.911Z,5.18
2024-03-16T03:27:40.439Z,4.93
2024-03-16T03:30:09.302Z,5.60
2024-03-16T03:32:37.934Z,5.28
2024-03-16T03:35:08.112Z,5.20
2024-03-16T03:37:36.770Z,5.18
2024-03-16T03:40:06.041Z,4.85
2024-03-16T03:42:36.165Z,5.30
2024-03-16T03:45:25.686Z,4.88
2024-03-16T03:48:04.196Z,5.28
2024-03-16T03:50:34.368Z,4.97
2024-03-16T03:53:04.394Z,4.55
2024-03-16T03:55:32.924Z,4.63
2024-03-16T03:58:03.452Z,5.28
2024-03-16T04:00:32.093Z,4.60
2024-03-16T04:03:00.856Z,4.63
2024-03-16T04:05:29.299Z,4.88
2024-03-16T04:07:57.818Z,3.80
2024-03-16T04:10:26.358Z,3.95
2024-03-16T04:12:55.411Z,3.55
2024-03-16T04:15:24.512Z,3.28
2024-03-16T04:17:53.057Z,3.55
2024-03-16T04:20:23.056Z,3.25
2024-03-16T04:22:51.710Z,2.55
2024-03-16T04:25:20.335Z,2.80
2024-03-16T04:27:48.867Z,3.88
2024-03-16T04:30:17.350Z,4.03
2024-03-16T04:32:46.065Z,3.55
2024-03-16T04:35:14.661Z,3.78
2024-03-16T04:37:43.114Z,3.90
2024-03-16T04:40:12.184Z,4.10
2024-03-16T04:42:40.705Z,3.65
2024-03-16T04:45:09.569Z,4.40
2024-03-16T04:47:38.146Z,4.47
2024-03-16T04:50:06.950Z,4.05
2024-03-16T04:52:35.666Z,4.40
2024-03-16T04:55:04.524Z,3.90
2024-03-16T04:57:33.108Z,4.60
2024-03-16T05:00:01.499Z,3.78
2024-03-16T05:02:31.895Z,4.25
2024-03-16T05:05:00.295Z,4.15
2024-03-16T05:07:28.900Z,3.83
2024-03-16T05:09:57.460Z,3.78
2024-03-16T05:12:26.387Z,3.30
2024-03-16T05:14:55.209Z,3.70
2024-03-16T05:17:23.709Z,3.45
2024-03-16T05:19:53.252Z,3.35
2024-03-16T05:22:21.808Z,2.97
2024-03-16T05:24:54.543Z,2.88
2024-03-16T05:27:23.033Z,3.13
2024-03-16T05:29:52.663Z,2.58
2024-03-16T05:32:21.091Z,2.67
2024-03-16T05:34:50.563Z,3.60
2024-03-16T05:37:19.593Z,3.45
2024-03-16T05:39:48.056Z,3.47
2024-03-16T05:42:16.497Z,3.08
2024-03-16T05:44:44.899Z,4.00
2024-03-16T05:47:13.444Z,3.58
2024-03-16T05:49:41.945Z,3.50
2024-03-16T05:52:10.419Z,4.35
2024-03-16T05:54:39.125Z,3.40
2024-03-16T05:57:08.227Z,3.83
2024-03-16T05:59:36.772Z,4.00
2024-03-16T06:02:05.224Z,3.92
2024-03-16T06:04:33.736Z,3.90
2024-03-16T06:07:02.332Z,3.42
2024-03-16T06:09:30.936Z,3.60
2024-03-16T06:11:59.503Z,3.85
2024-03-16T06:14:27.999Z,5.63
2024-03-16T06:16:58.064Z,4.30
2024-03-16T06:19:26.643Z,4.15
2024-03-16T06:21:55.254Z,4.22
2024-03-16T06:24:24.710Z,4.03
2024-03-16T06:27:01.527Z,4.50
2024-03-16T06:29:32.119Z,4.70
2024-03-16T06:32:07.422Z,4.07
2024-03-16T06:34:35.987Z,5.18
2024-03-16T06:37:05.238Z,5.00
2024-03-16T06:39:33.818Z,3.92
2024-03-16T06:42:02.434Z,4.07
2024-03-16T06:44:31.407Z,3.88
2024-03-16T06:46:59.919Z,4.22
2024-03-16T06:49:28.464Z,4.00
2024-03-16T06:51:56.896Z,3.72
2024-03-16T06:54:25.267Z,3.15
2024-03-16T06:56:54.038Z,3.83
2024-03-16T06:59:22.825Z,4.30
2024-03-16T07:01:52.301Z,4.43
2024-03-16T07:04:20.909Z,4.00
2024-03-16T07:06:49.463Z,3.85
2024-03-16T07:09:19.813Z,4.35
2024-03-16T07:11:49.030Z,4.00
2024-03-16T07:14:18.222Z,4.45
2024-03-16T07:16:46.633Z,5.20
2024-03-16T07:19:15.173Z,5.07
2024-03-16T07:21:43.760Z,6.10
2024-03-16T07:24:13.516Z,4.50
2024-03-16T07:26:46.592Z,4.80
2024-03-16T07:29:15.491Z,4.85
2024-03-16T07:31:43.951Z,5.18
2024-03-16T07:34:12.472Z,6.07
2024-03-16T07:36:41.024Z,6.03
2024-03-16T07:39:10.111Z,6.10
2024-03-16T07:41:39.315Z,5.85
2024-03-16T07:44:08.851Z,5.82
2024-03-16T07:46:39.348Z,6.15
2024-03-16T07:49:10.303Z,6.00
2024-03-16T07:51:39.051Z,6.78
2024-03-16T07:54:12.615Z,5.55
2024-03-16T07:56:41.143Z,6.57
2024-03-16T07:59:10.961Z,6.30
2024-03-16T08:01:41.354Z,6.38
2024-03-16T08:04:10.253Z,6.05
2024-03-16T08:06:39.286Z,5.32
2024-03-16T08:09:09.774Z,5.50
2024-03-16T08:11:38.221Z,7.63
2024-03-16T08:14:09.446Z,8.05
2024-03-16T08:16:38.197Z,6.93
2024-03-16T08:19:07.180Z,5.47
2024-03-16T08:21:37.317Z,6.47
2024-03-16T08:24:06.921Z,6.30
2024-03-16T08:26:35.310Z,7.18
2024-03-16T08:29:03.786Z,7.10
2024-03-16T08:31:32.329Z,6.28
2024-03-16T08:34:00.905Z,7.90
2024-03-16T08:36:29.778Z,5.15
2024-03-16T08:38:58.411Z,4.43
2024-03-16T08:41:26.990Z,5.60
2024-03-16T08:43:55.589Z,7.53
2024-03-16T08:46:27.396Z,5.82
2024-03-16T08:48:56.458Z,5.82
2024-03-16T08:51:25.669Z,5.50
2024-03-16T08:53:55.392Z,7.05
2024-03-16T08:56:25.325Z,5.53
2024-03-16T08:58:54.064Z,5.97
2024-03-16T09:01:23.158Z,6.82
2024-03-16T09:03:51.709Z,5.75
2024-03-16T09:06:20.423Z,7.25
2024-03-16T09:08:48.973Z,6.95
2024-03-16T09:11:17.950Z,5.38
2024-03-16T09:13:47.515Z,7.13
2024-03-16T09:16:16.825Z,7.78
2024-03-16T09:18:46.297Z,5.10
2024-03-16T09:21:14.867Z,5.00
2024-03-16T09:23:43.234Z,5.05
2024-03-16T09:26:11.770Z,6.85
2024-03-16T09:28:40.416Z,6.43
2024-03-16T09:31:11.458Z,6.28
2024-03-16T09:33:40.137Z,6.32
2024-03-16T09:36:08.698Z,4.50
2024-03-16T09:38:37.369Z,1.98
2024-03-16T09:41:06.563Z,2.22
